Time;durP1;ratioP1;P1;durP2;ratioP2;P2;SDS_P1;SDS_P2;PMS_P1;PMS_P2;Temp;Humidity;BMP_temperature;BMP_pressure;BME280_temperature;BME280_humidity;BME280_pressure;Samples;Min_cycle;Max_cycle;Signal;HPM_P1;HPM_P2
2023/01/23 00:01:35;;;;;;;;;;;-0.60;99.90;;;;;;5010390;28;19912;-63
2023/01/23 00:04:01;;;;;;;;;;;-0.50;99.90;;;;;;5012367;28;20264;-64
2023/01/23 00:06:27;;;;;;;;;;;-0.60;99.90;;;;;;5004301;28;19910;-65
2023/01/23 00:08:52;;;;;;;;;;;-0.60;99.90;;;;;;5003629;28;20299;-65
2023/01/23 00:11:20;;;;;;;;;;;-0.60;99.90;;;;;;5012431;28;19964;-65
2023/01/23 00:13:45;;;;;;;;;;;-0.60;99.90;;;;;;5010510;28;19909;-65
2023/01/23 00:16:13;;;;;;;;;;;-0.60;99.90;;;;;;5005520;28;19956;-64
2023/01/23 00:18:39;;;;;;;;;;;-0.60;99.90;;;;;;5005480;28;19916;-64
2023/01/23 00:21:05;;;;;;;;;;;-0.60;99.90;;;;;;4999616;28;19909;-65
2023/01/23 00:23:31;;;;;;;;;;;-0.70;99.90;;;;;;5004625;28;19910;-64
2023/01/23 00:26:07;;;;;;;;;;;-0.70;99.90;;;;;;5004755;28;19916;-64
2023/01/23 00:28:33;;;;;;;;;;;-0.70;99.90;;;;;;4996828;28;20007;-65
2023/01/23 00:31:10;;;;;;;;;;;-0.60;99.90;;;;;;5012199;28;19992;-64
2023/01/23 00:33:36;;;;;;;;;;;-0.60;99.90;;;;;;5009886;28;20257;-63
2023/01/23 00:36:02;;;;;;;;;;;-0.60;99.90;;;;;;5010665;28;20508;-64
2023/01/23 00:38:27;;;;;;;;;;;-0.70;99.90;;;;;;5008620;28;19914;-65
2023/01/23 00:40:55;;;;;;;;;;;-0.70;99.90;;;;;;5006633;28;20012;-64
2023/01/23 00:43:21;;;;;;;;;;;-0.70;99.90;;;;;;5009450;28;19921;-65
2023/01/23 00:45:47;;;;;;;;;;;-0.70;99.90;;;;;;5005152;28;19916;-64
2023/01/23 00:48:12;;;;;;;;;;;-0.70;99.90;;;;;;4998799;28;19918;-65
2023/01/23 00:50:38;;;;;;;;;;;-0.80;99.90;;;;;;5003578;28;20013;-65
2023/01/23 00:53:03;;;;;;;;;;;-0.80;99.90;;;;;;5004094;28;19963;-65
2023/01/23 00:55:29;;;;;;;;;;;-1.00;99.90;;;;;;5009570;28;19920;-65
2023/01/23 00:57:54;;;;;;;;;;;-1.10;99.90;;;;;;5004228;28;20353;-65
2023/01/23 01:00:20;;;;;;;;;;;-1.10;99.90;;;;;;5008466;28;19916;-65
2023/01/23 01:02:46;;;;;;;;;;;-1.10;99.90;;;;;;5000952;28;19909;-65
2023/01/23 01:05:12;;;;;;;;;;;-1.10;99.90;;;;;;5006287;28;19910;-64
2023/01/23 01:07:37;;;;;;;;;;;-1.10;99.90;;;;;;5001911;28;19917;-64
2023/01/23 01:10:03;;;;;;;;;;;-1.20;99.90;;;;;;5004821;28;19949;-64
2023/01/23 01:12:29;;;;;;;;;;;-1.20;99.90;;;;;;5006059;28;19910;-64
2023/01/23 01:14:54;;;;;;;;;;;-1.00;99.90;;;;;;5005793;28;19995;-64
2023/01/23 01:17:20;;;;;;;;;;;-1.00;99.90;;;;;;5001898;28;20417;-65
2023/01/23 01:19:45;;;;;;;;;;;-1.10;99.90;;;;;;5007443;28;19909;-64
2023/01/23 01:22:11;;;;;;;;;;;-1.30;99.90;;;;;;5005716;28;19909;-64
2023/01/23 01:24:37;;;;;;;;;;;-1.50;99.90;;;;;;4999580;28;19909;-64
2023/01/23 01:27:02;;;;;;;;;;;-1.70;99.90;;;;;;5006106;28;19921;-64
2023/01/23 01:29:28;;;;;;;;;;;-1.90;99.90;;;;;;5001600;28;19921;-65
2023/01/23 01:31:53;;;;;;;;;;;-2.00;99.90;;;;;;5000010;28;20411;-64
2023/01/23 01:34:19;;;;;;;;;;;-1.80;99.90;;;;;;5010128;28;19913;-65
2023/01/23 01:36:44;;;;;;;;;;;-1.50;99.90;;;;;;5005074;28;19971;-66
2023/01/23 01:39:10;;;;;;;;;;;-1.30;99.90;;;;;;5010860;28;19914;-65
2023/01/23 01:41:36;;;;;;;;;;;-1.00;99.90;;;;;;4999404;28;19910;-64
2023/01/23 01:44:02;;;;;;;;;;;-0.90;99.90;;;;;;5005201;28;19925;-64
2023/01/23 01:46:28;;;;;;;;;;;-0.70;99.90;;;;;;5001665;28;19964;-64
2023/01/23 01:48:54;;;;;;;;;;;-0.70;99.90;;;;;;5006875;28;20276;-64
2023/01/23 01:51:19;;;;;;;;;;;-0.60;99.90;;;;;;5001731;28;19913;-63
2023/01/23 01:53:47;;;;;;;;;;;-0.60;99.90;;;;;;5003869;28;19956;-64
2023/01/23 01:56:13;;;;;;;;;;;-0.60;99.90;;;;;;5004757;28;19909;-63
2023/01/23 01:58:39;;;;;;;;;;;-0.60;99.90;;;;;;5000590;28;20258;-64
2023/01/23 02:01:05;;;;;;;;;;;-0.70;99.90;;;;;;5006483;28;19949;-64
2023/01/23 02:03:31;;;;;;;;;;;-0.70;99.90;;;;;;5003772;28;19909;-64
2023/01/23 02:05:56;;;;;;;;;;;-0.70;99.90;;;;;;5004210;28;19913;-64
2023/01/23 02:08:24;;;;;;;;;;;-0.70;99.90;;;;;;5001428;28;19940;-65
2023/01/23 02:10:51;;;;;;;;;;;-0.60;99.90;;;;;;5008427;28;20439;-64
2023/01/23 02:13:17;;;;;;;;;;;-0.50;99.90;;;;;;5008347;28;19909;-64
2023/01/23 02:15:42;;;;;;;;;;;-0.50;99.90;;;;;;5004009;28;20289;-64
2023/01/23 02:18:08;;;;;;;;;;;-0.40;99.90;;;;;;5003948;28;20056;-64
2023/01/23 02:20:33;;;;;;;;;;;-0.30;99.90;;;;;;5000163;28;20263;-65
2023/01/23 02:23:09;;;;;;;;;;;-0.20;99.90;;;;;;5005109;28;19910;-65
2023/01/23 02:25:44;;;;;;;;;;;-0.20;99.90;;;;;;5005623;28;19910;-65
2023/01/23 02:28:10;;;;;;;;;;;-0.20;99.90;;;;;;5001744;28;19975;-65
2023/01/23 02:30:36;;;;;;;;;;;-0.20;99.90;;;;;;4999601;28;19917;-64
2023/01/23 02:33:07;;;;;;;;;;;-0.20;99.90;;;;;;4999902;28;19910;-64
2023/01/23 02:35:32;;;;;;;;;;;-0.20;99.90;;;;;;5006399;28;19920;-64
2023/01/23 02:38:01;;;;;;;;;;;-0.20;99.90;;;;;;5010243;28;19909;-64
2023/01/23 02:40:44;;;;;;;;;;;-0.30;99.90;;;;;;5007083;28;19999;-64
2023/01/23 02:43:12;;;;;;;;;;;-0.30;99.90;;;;;;5006843;28;20385;-64
2023/01/23 02:45:38;;;;;;;;;;;-0.30;99.90;;;;;;5004183;28;19917;-64
2023/01/23 02:48:05;;;;;;;;;;;-0.20;99.90;;;;;;5011876;28;20439;-64
2023/01/23 02:50:30;;;;;;;;;;;-0.20;99.90;;;;;;5008393;28;19972;-64
2023/01/23 02:52:57;;;;;;;;;;;-0.20;99.90;;;;;;5008978;28;19910;-63
2023/01/23 02:55:25;;;;;;;;;;;-0.20;99.90;;;;;;5011840;28;20269;-65
2023/01/23 02:57:51;;;;;;;;;;;-0.10;99.90;;;;;;5009827;28;19909;-64
2023/01/23 03:00:19;;;;;;;;;;;0.00;99.90;;;;;;5012533;28;20281;-65
2023/01/23 03:02:48;;;;;;;;;;;0.00;99.90;;;;;;5012503;28;20004;-65
2023/01/23 03:05:14;;;;;;;;;;;0.00;99.90;;;;;;5013594;28;19936;-65
2023/01/23 03:07:39;;;;;;;;;;;0.00;99.90;;;;;;5012106;28;19921;-65
2023/01/23 03:10:06;;;;;;;;;;;0.00;99.90;;;;;;5012178;28;19909;-65
2023/01/23 03:12:32;;;;;;;;;;;0.00;99.90;;;;;;5010565;28;19909;-65
2023/01/23 03:14:58;;;;;;;;;;;0.10;99.90;;;;;;5006705;28;19916;-64
2023/01/23 03:17:23;;;;;;;;;;;0.10;99.90;;;;;;5013700;28;20000;-65
2023/01/23 03:19:49;;;;;;;;;;;0.10;99.90;;;;;;5011975;28;20484;-65
2023/01/23 03:22:15;;;;;;;;;;;0.10;99.90;;;;;;5013439;28;19920;-65
2023/01/23 03:24:40;;;;;;;;;;;0.10;99.90;;;;;;5010794;28;19957;-62
2023/01/23 03:27:06;;;;;;;;;;;0.10;99.90;;;;;;5012119;28;19923;-65
2023/01/23 03:32:16;;;;;;;;;;;0.00;99.90;;;;;;5012425;28;20388;-65
2023/01/23 03:34:42;;;;;;;;;;;0.10;99.90;;;;;;5010649;28;20000;-65
2023/01/23 03:37:08;;;;;;;;;;;0.00;99.90;;;;;;5004763;28;19916;-64
2023/01/23 03:42:17;;;;;;;;;;;0.10;99.90;;;;;;5012395;28;19916;-63
2023/01/23 03:44:43;;;;;;;;;;;0.10;99.90;;;;;;5010946;28;19917;-64
2023/01/23 03:47:08;;;;;;;;;;;0.10;99.90;;;;;;5011684;28;19917;-64
2023/01/23 03:49:34;;;;;;;;;;;0.10;99.90;;;;;;5011442;28;19909;-63
2023/01/23 03:52:00;;;;;;;;;;;0.10;99.90;;;;;;5012175;28;19909;-65
2023/01/23 03:54:26;;;;;;;;;;;0.10;99.90;;;;;;5012190;28;20246;-66
2023/01/23 03:56:51;;;;;;;;;;;0.10;99.90;;;;;;5009672;28;19909;-64
2023/01/23 03:59:17;;;;;;;;;;;0.10;99.90;;;;;;5012458;28;19992;-64
2023/01/23 04:01:42;;;;;;;;;;;0.20;99.90;;;;;;5008469;28;19925;-64
2023/01/23 04:04:08;;;;;;;;;;;0.10;99.90;;;;;;5012737;28;20358;-65
2023/01/23 04:06:34;;;;;;;;;;;0.20;99.90;;;;;;5010410;28;19940;-65
2023/01/23 04:08:59;;;;;;;;;;;0.10;99.90;;;;;;5010485;28;19910;-65
2023/01/23 04:11:25;;;;;;;;;;;0.20;99.90;;;;;;5007582;28;19948;-64
2023/01/23 04:13:51;;;;;;;;;;;0.10;99.90;;;;;;5005070;28;19964;-64
2023/01/23 04:16:17;;;;;;;;;;;0.20;99.90;;;;;;5011028;28;19942;-64
2023/01/23 04:18:42;;;;;;;;;;;0.10;99.90;;;;;;5008300;28;19909;-64
2023/01/23 04:21:08;;;;;;;;;;;0.10;99.90;;;;;;5012626;28;19949;-64
2023/01/23 04:23:34;;;;;;;;;;;0.10;99.90;;;;;;5010500;28;19982;-63
2023/01/23 04:26:00;;;;;;;;;;;0.10;99.90;;;;;;5011881;28;19913;-64
2023/01/23 04:28:25;;;;;;;;;;;0.10;99.90;;;;;;5009251;28;20020;-64
2023/01/23 04:30:51;;;;;;;;;;;0.10;99.90;;;;;;5010680;28;19910;-65
2023/01/23 04:33:17;;;;;;;;;;;0.10;99.90;;;;;;5012280;28;19909;-65
2023/01/23 04:35:53;;;;;;;;;;;0.20;99.90;;;;;;5007517;28;19917;-64
2023/01/23 04:38:19;;;;;;;;;;;0.20;99.90;;;;;;5010009;28;19979;-64
2023/01/23 04:40:45;;;;;;;;;;;0.20;99.90;;;;;;5007024;28;20357;-65
2023/01/23 04:43:11;;;;;;;;;;;0.10;99.90;;;;;;5025197;23;19921;-67
2023/01/23 04:45:37;;;;;;;;;;;0.20;99.90;;;;;;5009076;28;19956;-66
2023/01/23 04:48:02;;;;;;;;;;;0.20;99.90;;;;;;5011947;28;19921;-66
2023/01/23 04:50:28;;;;;;;;;;;0.10;99.90;;;;;;5011344;28;20400;-67
2023/01/23 04:52:54;;;;;;;;;;;0.10;99.90;;;;;;5021113;28;19909;-67
2023/01/23 04:55:19;;;;;;;;;;;0.10;99.90;;;;;;5016354;28;20004;-65
2023/01/23 04:57:45;;;;;;;;;;;0.10;99.90;;;;;;5006551;28;19947;-66
2023/01/23 05:00:11;;;;;;;;;;;0.10;99.90;;;;;;5009745;28;19931;-67
2023/01/23 05:02:36;;;;;;;;;;;0.10;99.90;;;;;;5008908;28;19916;-66
2023/01/23 05:05:02;;;;;;;;;;;0.10;99.90;;;;;;5011116;28;20361;-66
2023/01/23 05:07:28;;;;;;;;;;;0.00;99.90;;;;;;5008829;28;19925;-66
2023/01/23 05:09:53;;;;;;;;;;;0.00;99.90;;;;;;5008066;28;20285;-66
2023/01/23 05:12:19;;;;;;;;;;;0.00;99.90;;;;;;5011114;28;19909;-65
2023/01/23 05:14:44;;;;;;;;;;;0.00;99.90;;;;;;5007881;28;20281;-67
2023/01/23 05:17:10;;;;;;;;;;;0.00;99.90;;;;;;5010733;28;19916;-66
2023/01/23 05:19:35;;;;;;;;;;;0.00;99.90;;;;;;5009948;28;20071;-65
2023/01/23 05:22:01;;;;;;;;;;;0.00;99.90;;;;;;5010460;28;19916;-67
2023/01/23 05:24:27;;;;;;;;;;;0.00;99.90;;;;;;5011340;28;19910;-66
2023/01/23 05:26:52;;;;;;;;;;;0.00;99.90;;;;;;5008913;28;20344;-66
2023/01/23 05:29:18;;;;;;;;;;;0.10;99.90;;;;;;5007853;28;19915;-66
2023/01/23 05:31:44;;;;;;;;;;;0.00;99.90;;;;;;5008878;28;19910;-66
2023/01/23 05:34:09;;;;;;;;;;;0.00;99.90;;;;;;5011221;28;19964;-66
2023/01/23 05:36:35;;;;;;;;;;;0.00;99.90;;;;;;5008878;28;20364;-67
2023/01/23 05:39:00;;;;;;;;;;;0.00;99.90;;;;;;5004464;28;19909;-67
2023/01/23 05:41:26;;;;;;;;;;;0.00;99.90;;;;;;5009639;28;19917;-66
2023/01/23 05:43:52;;;;;;;;;;;0.00;99.90;;;;;;5010017;28;19917;-66
2023/01/23 05:46:17;;;;;;;;;;;0.00;99.90;;;;;;5010574;28;19916;-66
2023/01/23 05:48:43;;;;;;;;;;;0.00;99.90;;;;;;5008911;28;19921;-66
2023/01/23 05:51:08;;;;;;;;;;;0.00;99.90;;;;;;5009878;28;19916;-66
2023/01/23 05:53:34;;;;;;;;;;;0.00;99.90;;;;;;5009207;28;19909;-66
2023/01/23 05:56:06;;;;;;;;;;;-0.10;99.90;;;;;;5010253;28;20357;-66
2023/01/23 05:58:31;;;;;;;;;;;-0.10;99.90;;;;;;5008594;28;19916;-66
2023/01/23 06:00:57;;;;;;;;;;;-0.10;99.90;;;;;;5008026;28;19910;-67
2023/01/23 06:03:22;;;;;;;;;;;-0.10;99.90;;;;;;5010416;28;20384;-67
2023/01/23 06:05:48;;;;;;;;;;;0.00;99.90;;;;;;5008542;28;19917;-65
2023/01/23 06:08:14;;;;;;;;;;;0.00;99.90;;;;;;5008578;28;20391;-65
2023/01/23 06:10:39;;;;;;;;;;;0.00;99.90;;;;;;5007975;28;19932;-66
2023/01/23 06:13:05;;;;;;;;;;;-0.10;99.90;;;;;;5008551;28;20038;-67
2023/01/23 06:15:30;;;;;;;;;;;-0.20;99.90;;;;;;5006261;28;19918;-67
2023/01/23 06:17:56;;;;;;;;;;;-0.20;99.90;;;;;;5003196;28;19916;-66
2023/01/23 06:20:21;;;;;;;;;;;-0.20;99.90;;;;;;5009968;28;19917;-66
2023/01/23 06:22:47;;;;;;;;;;;-0.20;99.90;;;;;;5008225;28;19920;-65
2023/01/23 06:25:13;;;;;;;;;;;-0.20;99.90;;;;;;5008275;28;19984;-66
2023/01/23 06:27:38;;;;;;;;;;;-0.20;99.90;;;;;;5006746;28;19979;-65
2023/01/23 06:30:04;;;;;;;;;;;-0.20;99.90;;;;;;5010427;28;20431;-66
2023/01/23 06:32:30;;;;;;;;;;;-0.20;99.90;;;;;;5008533;28;19917;-66
2023/01/23 06:34:55;;;;;;;;;;;-0.30;99.90;;;;;;5008643;28;19909;-66
2023/01/23 06:37:21;;;;;;;;;;;-0.40;99.90;;;;;;5009776;28;19913;-66
2023/01/23 06:39:47;;;;;;;;;;;-0.40;99.90;;;;;;5008219;28;20273;-66
2023/01/23 06:42:12;;;;;;;;;;;-0.40;99.90;;;;;;5006834;28;20293;-66
2023/01/23 06:44:38;;;;;;;;;;;-0.50;99.90;;;;;;5003946;28;20004;-66
2023/01/23 06:47:04;;;;;;;;;;;-0.50;99.90;;;;;;5009882;28;19929;-65
2023/01/23 06:49:29;;;;;;;;;;;-0.50;99.90;;;;;;5009731;28;19948;-67
2023/01/23 06:51:55;;;;;;;;;;;-0.40;99.90;;;;;;5007044;28;20238;-66
2023/01/23 06:54:20;;;;;;;;;;;-0.40;99.90;;;;;;5014481;28;19910;-65
2023/01/23 06:56:48;;;;;;;;;;;-0.50;99.90;;;;;;5007871;28;19916;-66
2023/01/23 06:59:14;;;;;;;;;;;-0.50;99.90;;;;;;5009952;28;19919;-66
2023/01/23 07:01:40;;;;;;;;;;;-0.50;99.90;;;;;;5004601;28;19963;-67
2023/01/23 07:04:07;;;;;;;;;;;-0.50;99.90;;;;;;5010126;28;19916;-66
2023/01/23 07:06:33;;;;;;;;;;;-0.50;99.90;;;;;;5009174;28;19913;-65
2023/01/23 07:08:59;;;;;;;;;;;-0.40;99.90;;;;;;5004815;28;19948;-65
2023/01/23 07:11:24;;;;;;;;;;;-0.40;99.90;;;;;;5011265;28;19916;-65
2023/01/23 07:13:50;;;;;;;;;;;-0.30;99.90;;;;;;5010403;28;19980;-66
2023/01/23 07:16:15;;;;;;;;;;;-0.20;99.90;;;;;;5008444;28;19913;-66
2023/01/23 07:18:41;;;;;;;;;;;-0.20;99.90;;;;;;5007498;28;19916;-65
2023/01/23 07:21:07;;;;;;;;;;;-0.20;99.90;;;;;;5009725;28;19971;-66
2023/01/23 07:23:33;;;;;;;;;;;-0.10;99.90;;;;;;5009256;28;19917;-66
2023/01/23 07:26:03;;;;;;;;;;;-0.10;99.90;;;;;;5010368;28;19909;-65
2023/01/23 07:28:28;;;;;;;;;;;0.00;99.90;;;;;;5009705;28;20308;-66
2023/01/23 07:30:54;;;;;;;;;;;0.10;99.90;;;;;;5008979;28;19914;-66
2023/01/23 07:33:20;;;;;;;;;;;0.10;99.90;;;;;;5012722;28;19916;-66
2023/01/23 07:35:45;;;;;;;;;;;0.10;99.90;;;;;;5006854;28;19964;-65
2023/01/23 07:38:11;;;;;;;;;;;0.10;99.90;;;;;;5002480;28;20377;-66
2023/01/23 07:40:37;;;;;;;;;;;0.10;99.90;;;;;;5011789;28;20369;-67
2023/01/23 07:43:04;;;;;;;;;;;0.10;99.90;;;;;;5011010;28;20004;-65
2023/01/23 07:45:29;;;;;;;;;;;0.10;99.90;;;;;;5010961;28;19909;-66
2023/01/23 07:47:55;;;;;;;;;;;0.10;99.90;;;;;;5011433;28;19917;-65
2023/01/23 07:50:21;;;;;;;;;;;0.10;99.90;;;;;;5013072;28;19910;-66
2023/01/23 07:52:46;;;;;;;;;;;0.00;99.90;;;;;;5010783;28;19909;-66
2023/01/23 07:55:12;;;;;;;;;;;-0.10;99.90;;;;;;5012908;28;20008;-66
2023/01/23 07:57:38;;;;;;;;;;;-0.10;99.90;;;;;;5010338;28;19925;-66
2023/01/23 08:00:04;;;;;;;;;;;-0.20;99.90;;;;;;5009451;28;19917;-65
2023/01/23 08:02:30;;;;;;;;;;;-0.20;99.90;;;;;;5008767;28;19909;-66
2023/01/23 08:04:55;;;;;;;;;;;-0.20;99.90;;;;;;5008167;28;19916;-65
2023/01/23 08:07:22;;;;;;;;;;;-0.20;99.90;;;;;;5012382;28;19918;-65
2023/01/23 08:09:48;;;;;;;;;;;-0.20;99.90;;;;;;5005475;28;19971;-66
2023/01/23 08:12:13;;;;;;;;;;;-0.20;99.90;;;;;;5009348;28;20365;-66
2023/01/23 08:14:40;;;;;;;;;;;-0.20;99.90;;;;;;5006059;28;19963;-66
2023/01/23 08:17:05;;;;;;;;;;;-0.20;99.90;;;;;;5010406;28;19909;-67
2023/01/23 08:19:31;;;;;;;;;;;-0.20;99.90;;;;;;5008242;28;20020;-66
2023/01/23 08:21:56;;;;;;;;;;;-0.30;99.90;;;;;;5009478;28;19910;-66
2023/01/23 08:24:22;;;;;;;;;;;-0.10;99.90;;;;;;5011084;28;20357;-65
2023/01/23 08:26:47;;;;;;;;;;;-0.10;99.90;;;;;;5007703;28;19960;-65
2023/01/23 08:29:13;;;;;;;;;;;0.00;99.90;;;;;;5005524;28;20012;-65
2023/01/23 08:31:39;;;;;;;;;;;-0.10;99.90;;;;;;5007004;28;20370;-66
2023/01/23 08:34:04;;;;;;;;;;;-0.10;99.90;;;;;;5010824;28;19916;-65
2023/01/23 08:36:30;;;;;;;;;;;0.00;99.90;;;;;;5006122;28;19979;-65
2023/01/23 08:38:56;;;;;;;;;;;0.00;99.90;;;;;;5010573;28;19909;-65
2023/01/23 08:41:22;;;;;;;;;;;0.00;99.90;;;;;;5008742;28;19909;-66
2023/01/23 08:43:48;;;;;;;;;;;0.00;99.90;;;;;;5005392;28;19928;-65
2023/01/23 08:46:14;;;;;;;;;;;0.10;99.90;;;;;;5010097;28;19972;-65
2023/01/23 08:48:40;;;;;;;;;;;0.10;99.90;;;;;;5009168;28;19921;-65
2023/01/23 08:51:07;;;;;;;;;;;0.10;99.90;;;;;;5009532;28;19951;-67
2023/01/23 08:53:33;;;;;;;;;;;0.20;99.90;;;;;;5009733;28;19909;-66
2023/01/23 08:56:03;;;;;;;;;;;0.20;99.90;;;;;;5004118;28;19910;-65
2023/01/23 08:58:28;;;;;;;;;;;0.20;99.90;;;;;;5003886;28;19936;-67
2023/01/23 09:00:54;;;;;;;;;;;0.20;99.90;;;;;;5002338;28;20342;-65
2023/01/23 09:03:19;;;;;;;;;;;0.30;99.90;;;;;;5005050;28;19948;-68
2023/01/23 09:05:45;;;;;;;;;;;0.30;99.90;;;;;;5021238;28;19909;-66
2023/01/23 09:08:11;;;;;;;;;;;0.30;99.90;;;;;;5007902;28;20256;-65
2023/01/23 09:10:36;;;;;;;;;;;0.40;99.90;;;;;;5006486;28;20367;-65
2023/01/23 09:13:03;;;;;;;;;;;0.40;99.90;;;;;;5007959;28;19910;-66
2023/01/23 09:15:28;;;;;;;;;;;0.40;99.90;;;;;;5005077;28;19913;-66
2023/01/23 09:17:54;;;;;;;;;;;0.40;99.90;;;;;;5006304;28;19971;-66
2023/01/23 09:20:19;;;;;;;;;;;0.40;99.90;;;;;;5005113;28;19916;-66
2023/01/23 09:22:45;;;;;;;;;;;0.40;99.90;;;;;;5002883;28;19909;-65
2023/01/23 09:25:11;;;;;;;;;;;0.40;99.90;;;;;;5003535;28;19909;-65
2023/01/23 09:27:37;;;;;;;;;;;0.50;99.90;;;;;;5007309;28;19924;-67
2023/01/23 09:30:03;;;;;;;;;;;0.50;99.90;;;;;;5005563;28;19913;-65
2023/01/23 09:32:29;;;;;;;;;;;0.40;99.90;;;;;;5001462;28;20350;-65
2023/01/23 09:34:54;;;;;;;;;;;0.50;99.90;;;;;;5003192;28;19961;-66
2023/01/23 09:37:20;;;;;;;;;;;0.60;99.90;;;;;;5006545;28;19917;-66
2023/01/23 09:39:46;;;;;;;;;;;0.60;99.90;;;;;;5005764;28;19916;-65
2023/01/23 09:42:23;;;;;;;;;;;0.60;99.90;;;;;;5001495;28;20409;-64
2023/01/23 09:44:54;;;;;;;;;;;0.60;99.90;;;;;;5005931;28;19914;-64
2023/01/23 09:47:25;;;;;;;;;;;0.70;99.90;;;;;;4999437;28;20439;-63
2023/01/23 09:50:02;;;;;;;;;;;0.70;99.90;;;;;;5004937;28;20028;-62
2023/01/23 09:52:29;;;;;;;;;;;0.80;99.90;;;;;;5001059;28;19973;-62
2023/01/23 09:55:00;;;;;;;;;;;0.80;99.90;;;;;;5003633;28;20385;-63
2023/01/23 09:57:32;;;;;;;;;;;0.80;99.90;;;;;;5004959;28;20016;-62
2023/01/23 10:00:33;;;;;;;;;;;0.80;99.90;;;;;;5005993;28;19960;-64
2023/01/23 10:02:59;;;;;;;;;;;0.90;99.90;;;;;;4925646;29;19911;-63
2023/01/23 10:05:31;;;;;;;;;;;1.00;99.90;;;;;;4932336;29;19914;-63
2023/01/23 10:08:26;;;;;;;;;;;1.10;99.90;;;;;;4926879;29;19919;-64
2023/01/23 10:10:51;;;;;;;;;;;1.10;99.90;;;;;;4914642;29;20073;-62
2023/01/23 10:13:21;;;;;;;;;;;1.40;99.90;;;;;;4926198;29;20013;-63
2023/01/23 10:15:50;;;;;;;;;;;1.50;99.90;;;;;;4928898;29;19918;-64
2023/01/23 10:18:15;;;;;;;;;;;1.70;99.90;;;;;;4932064;29;19914;-63
2023/01/23 10:20:53;;;;;;;;;;;1.90;99.90;;;;;;4927246;29;19950;-62
2023/01/23 10:23:29;;;;;;;;;;;2.10;99.90;;;;;;4923095;29;19914;-63
2023/01/23 10:25:55;;;;;;;;;;;2.30;99.90;;;;;;4926458;29;19922;-64
2023/01/23 10:28:27;;;;;;;;;;;2.40;99.90;;;;;;4928083;29;19919;-64
2023/01/23 10:30:55;;;;;;;;;;;2.50;99.90;;;;;;4932317;29;20009;-63
2023/01/23 10:33:25;;;;;;;;;;;2.60;99.90;;;;;;4927870;29;19911;-63
2023/01/23 10:35:54;;;;;;;;;;;2.70;99.90;;;;;;4931585;28;19964;-63
2023/01/23 10:38:29;;;;;;;;;;;2.70;99.90;;;;;;5007980;28;19971;-63
2023/01/23 10:41:13;;;;;;;;;;;2.80;99.90;;;;;;5003917;28;19924;-63
2023/01/23 10:43:43;;;;;;;;;;;2.90;99.90;;;;;;5008577;28;19971;-63
2023/01/23 10:46:12;;;;;;;;;;;3.00;99.90;;;;;;5008342;28;19909;-64
2023/01/23 10:48:40;;;;;;;;;;;3.00;99.90;;;;;;5002909;28;19972;-64
2023/01/23 10:51:28;;;;;;;;;;;3.00;99.90;;;;;;5006747;28;19916;-63
2023/01/23 10:54:00;;;;;;;;;;;3.00;99.90;;;;;;5001124;28;20455;-63
2023/01/23 10:56:25;;;;;;;;;;;3.00;99.90;;;;;;5003930;28;19909;-62
2023/01/23 10:58:53;;;;;;;;;;;3.00;99.90;;;;;;5003648;28;20382;-64
2023/01/23 11:01:25;;;;;;;;;;;2.90;99.90;;;;;;5005814;28;20392;-64
2023/01/23 11:03:50;;;;;;;;;;;2.90;99.90;;;;;;5001717;28;19909;-64
2023/01/23 11:06:16;;;;;;;;;;;3.00;99.90;;;;;;5011545;28;19924;-63
2023/01/23 11:08:55;;;;;;;;;;;3.00;99.90;;;;;;5004190;28;19921;-63
2023/01/23 11:11:23;;;;;;;;;;;3.00;99.90;;;;;;5010310;28;19909;-63
2023/01/23 11:13:50;;;;;;;;;;;3.00;99.90;;;;;;5008094;28;20349;-63
2023/01/23 11:16:18;;;;;;;;;;;3.00;99.90;;;;;;5003199;28;19920;-63
2023/01/23 11:18:54;;;;;;;;;;;3.00;99.90;;;;;;5022527;28;20423;-62
2023/01/23 11:21:25;;;;;;;;;;;3.00;99.90;;;;;;5010724;28;19956;-62
2023/01/23 11:24:17;;;;;;;;;;;3.00;99.90;;;;;;5007202;28;20328;-64
2023/01/23 11:26:43;;;;;;;;;;;3.00;99.90;;;;;;5005506;28;20362;-63
2023/01/23 11:29:21;;;;;;;;;;;3.10;99.90;;;;;;5007929;28;19917;-63
2023/01/23 11:31:50;;;;;;;;;;;3.00;99.90;;;;;;5021125;28;20342;-62
2023/01/23 11:34:17;;;;;;;;;;;3.10;99.90;;;;;;5009742;28;19992;-62
2023/01/23 11:36:45;;;;;;;;;;;3.10;99.90;;;;;;5007052;28;19918;-63
2023/01/23 11:39:15;;;;;;;;;;;3.10;99.90;;;;;;5010647;28;19963;-63
2023/01/23 11:41:42;;;;;;;;;;;3.10;99.90;;;;;;5003708;28;19918;-62
2023/01/23 11:44:12;;;;;;;;;;;3.20;99.90;;;;;;5003266;28;19926;-63
2023/01/23 11:46:44;;;;;;;;;;;3.20;99.90;;;;;;5008464;28;19909;-62
2023/01/23 11:49:24;;;;;;;;;;;3.30;99.90;;;;;;5010328;28;19963;-63
2023/01/23 11:51:49;;;;;;;;;;;3.40;99.90;;;;;;5003291;28;19913;-62
2023/01/23 11:54:18;;;;;;;;;;;3.40;99.90;;;;;;5009142;28;20341;-63
2023/01/23 11:56:52;;;;;;;;;;;3.50;99.90;;;;;;4997017;28;20968;-62
2023/01/23 11:59:37;;;;;;;;;;;3.40;99.90;;;;;;5010009;28;19916;-62
2023/01/23 12:02:02;;;;;;;;;;;3.40;99.90;;;;;;5001239;28;19955;-62
2023/01/23 12:04:42;;;;;;;;;;;3.40;99.90;;;;;;5007521;28;19917;-63
2023/01/23 12:07:14;;;;;;;;;;;3.50;99.90;;;;;;5001621;28;19917;-62
2023/01/23 12:10:01;;;;;;;;;;;3.50;99.90;;;;;;5006014;28;19910;-64
2023/01/23 12:12:45;;;;;;;;;;;3.50;99.90;;;;;;5003506;28;19939;-63
2023/01/23 12:15:23;;;;;;;;;;;3.40;99.90;;;;;;5004184;28;19980;-63
2023/01/23 12:18:07;;;;;;;;;;;3.40;99.90;;;;;;5000899;28;20005;-62
2023/01/23 12:20:50;;;;;;;;;;;3.40;99.90;;;;;;5002369;28;19936;-62
2023/01/23 12:23:30;;;;;;;;;;;3.40;99.90;;;;;;5006036;28;20251;-62
2023/01/23 12:26:00;;;;;;;;;;;3.50;99.90;;;;;;5002217;28;20301;-63
2023/01/23 12:28:43;;;;;;;;;;;3.50;99.90;;;;;;5007304;28;19992;-62
2023/01/23 12:31:18;;;;;;;;;;;3.60;99.90;;;;;;5004713;28;19917;-60
2023/01/23 12:33:44;;;;;;;;;;;3.60;99.90;;;;;;5006234;28;19945;-64
2023/01/23 12:36:20;;;;;;;;;;;3.80;99.90;;;;;;5010702;28;19959;-65
2023/01/23 12:38:55;;;;;;;;;;;3.80;99.90;;;;;;5003133;28;19916;-64
2023/01/23 12:41:35;;;;;;;;;;;3.90;99.90;;;;;;5007531;28;19910;-65
2023/01/23 12:44:07;;;;;;;;;;;3.90;99.90;;;;;;5005288;28;20012;-65
2023/01/23 12:46:42;;;;;;;;;;;3.80;99.90;;;;;;5007638;28;19909;-66
2023/01/23 12:49:27;;;;;;;;;;;3.80;99.90;;;;;;5005790;28;19925;-65
2023/01/23 12:51:58;;;;;;;;;;;3.70;99.90;;;;;;5004535;28;19913;-65
2023/01/23 12:54:37;;;;;;;;;;;3.60;99.90;;;;;;5009636;28;20407;-65
2023/01/23 12:57:04;;;;;;;;;;;3.70;99.90;;;;;;5004080;28;20281;-65
2023/01/23 12:59:48;;;;;;;;;;;3.70;99.90;;;;;;5005618;28;19924;-65
2023/01/23 13:02:21;;;;;;;;;;;3.70;99.90;;;;;;4998902;28;19933;-65
2023/01/23 13:05:06;;;;;;;;;;;3.70;99.90;;;;;;5000124;28;20284;-65
2023/01/23 13:07:38;;;;;;;;;;;3.70;99.90;;;;;;5001991;28;19925;-64
2023/01/23 13:10:15;;;;;;;;;;;3.60;99.90;;;;;;4999572;28;19909;-64
2023/01/23 13:12:41;;;;;;;;;;;3.60;99.90;;;;;;5001171;28;19913;-64
2023/01/23 13:15:15;;;;;;;;;;;3.50;99.90;;;;;;5005168;28;19928;-64
2023/01/23 13:17:41;;;;;;;;;;;3.50;99.90;;;;;;4997121;28;20384;-65
2023/01/23 13:23:17;;;;;;;;;;;3.50;99.90;;;;;;5006259;28;19924;-65
2023/01/23 13:25:42;;;;;;;;;;;3.60;99.90;;;;;;5006050;28;20027;-64
2023/01/23 13:28:27;;;;;;;;;;;3.60;99.90;;;;;;5007060;28;20316;-68
2023/01/23 13:31:03;;;;;;;;;;;3.60;99.90;;;;;;5009162;28;19956;-67
2023/01/23 13:33:28;;;;;;;;;;;3.60;99.90;;;;;;5010807;28;20371;-68
2023/01/23 13:35:55;;;;;;;;;;;3.70;99.90;;;;;;5007547;28;19975;-68
2023/01/23 13:38:20;;;;;;;;;;;3.70;99.90;;;;;;5009068;28;19914;-69
2023/01/23 13:41:03;;;;;;;;;;;3.70;99.90;;;;;;5002930;28;19956;-67
2023/01/23 13:43:43;;;;;;;;;;;3.70;99.90;;;;;;5003184;28;20428;-69
2023/01/23 13:46:17;;;;;;;;;;;3.70;99.90;;;;;;5008603;28;20388;-67
2023/01/23 13:51:31;;;;;;;;;;;3.70;99.90;;;;;;5005082;28;20002;-67
2023/01/23 13:56:43;;;;;;;;;;;3.60;99.90;;;;;;5002515;28;19924;-66
2023/01/23 13:59:13;;;;;;;;;;;3.70;99.90;;;;;;5002634;28;20004;-66
2023/01/23 14:07:42;;;;;;;;;;;3.70;99.90;;;;;;5003505;28;20435;-67
2023/01/23 14:10:19;;;;;;;;;;;3.70;99.90;;;;;;5004716;28;20016;-68
2023/01/23 14:12:45;;;;;;;;;;;3.60;99.90;;;;;;4993984;28;20316;-67
2023/01/23 14:18:22;;;;;;;;;;;3.60;99.90;;;;;;5003607;28;20369;-67
2023/01/23 14:20:50;;;;;;;;;;;3.60;99.90;;;;;;5004081;28;19963;-70
2023/01/23 14:23:21;;;;;;;;;;;3.70;99.90;;;;;;5004323;28;19921;-69
2023/01/23 14:25:47;;;;;;;;;;;3.70;99.90;;;;;;5003258;28;20379;-67
2023/01/23 14:28:17;;;;;;;;;;;3.80;99.90;;;;;;5006837;28;19922;-67
2023/01/23 14:30:56;;;;;;;;;;;3.70;99.90;;;;;;4999924;28;19916;-68
2023/01/23 14:33:22;;;;;;;;;;;3.70;99.90;;;;;;5001832;28;19917;-67
2023/01/23 14:35:49;;;;;;;;;;;3.70;99.90;;;;;;4998362;28;20009;-66
2023/01/23 14:38:25;;;;;;;;;;;3.60;99.90;;;;;;5002484;28;19996;-68
2023/01/23 14:40:51;;;;;;;;;;;3.70;99.90;;;;;;5003749;28;20004;-66
2023/01/23 14:43:19;;;;;;;;;;;3.70;99.90;;;;;;5001592;28;20016;-67
2023/01/23 14:45:46;;;;;;;;;;;3.70;99.90;;;;;;5005053;28;19914;-70
2023/01/23 14:48:14;;;;;;;;;;;3.70;99.90;;;;;;5000745;28;19988;-68
2023/01/23 14:50:40;;;;;;;;;;;3.70;99.90;;;;;;5000758;28;19909;-67
2023/01/23 14:53:10;;;;;;;;;;;3.70;99.90;;;;;;5001741;28;19909;-67
2023/01/23 14:55:38;;;;;;;;;;;3.70;99.90;;;;;;5002413;28;19909;-68